Terminal Aerodrome Forecast
Issued by NWS Lake Charles, LA

Home | Current Version | Previous Version | Text Only | Print | Product List | Glossary On
Versions: 1 2 3 4 5 6 7 8 9 10 11 12 13 14 15 16 17 18
000
FTUS44 KLCH 280148 AAA
TAFARA
TAF AMD
KARA 280148Z 2802/2824 15007KT P6SM SHRA SCT028 OVC050
      TEMPO 2802/2804 VRB20G30KT 2SM TSRA SCT018 BKN028CB OVC050
     FM280600 15010KT P6SM OVC015
      TEMPO 2810/2814 3SM BR
     FM281500 16010KT P6SM OVC025
     FM281800 18011KT P6SM BKN050=

USA.gov is the U.S. government's official web portal to all federal, state and local government web resources and services.